MDT,Max TemperatureF,Mean TemperatureF,Min TemperatureF,Max Dew PointF,MeanDew PointF,Min DewpointF,Max Humidity, Mean Humidity, Min Humidity, Max Sea Level PressureIn, Mean Sea Level PressureIn, Min Sea Level PressureIn, Max VisibilityMiles, Mean VisibilityMiles, Min VisibilityMiles, Max Wind SpeedMPH, Mean Wind SpeedMPH, Max Gust SpeedMPH,PrecipitationIn, CloudCover, Events, WindDirDegrees
2012-3-1,62,43,23,31,19,8,72,44,15,29.79,29.67,29.48,10,8,0,28,12,33,0.05,3,Fog-Snow,330
2012-3-2,46,32,17,30,21,8,100,61,22,30.11,29.88,29.77,10,5,0,18,8,22,0.07,5,Fog-Snow,247
2012-3-3,51,35,19,23,14,4,96,55,14,30.17,30.08,30.01,10,10,10,28,11,48,0.00,1,,272
2012-3-4,67,45,22,22,19,15,74,45,15,30.15,30.08,29.99,10,10,10,13,6,16,0.00,0,,224
2012-3-5,75,48,20,24,16,7,88,48,7,30.13,29.94,29.76,10,10,10,16,6,21,0.00,0,,249
2012-3-6,77,55,32,22,13,0,56,31,5,29.74,29.56,29.37,10,10,10,22,7,29,0.00,0,,219
2012-3-7,52,43,33,30,23,12,76,50,23,30.16,29.79,29.41,10,10,10,23,11,26,0.00,1,,32
2012-3-8,50,35,19,21,11,6,77,48,18,30.57,30.45,30.22,10,10,10,21,8,28,0.00,0,,347
2012-3-9,60,37,13,20,8,2,84,48,11,30.60,30.44,30.24,10,10,10,18,8,23,0.00,0,,201
2012-3-10,62,45,27,43,30,5,92,59,26,30.23,30.04,29.88,10,9,4,28,10,32,0.02,6,Rain,158
2012-3-11,50,40,30,36,34,30,100,76,52,29.89,29.75,29.64,10,10,10,16,7,20,0.00,4,,140
2012-3-12,72,49,26,32,22,12,96,54,11,29.91,29.85,29.72,10,10,10,21,6,26,0.00,0,,238
2012-3-13,81,55,28,25,15,2,69,37,5,29.93,29.82,29.70,10,10,10,18,9,26,0.00,0,,237
2012-3-14,80,56,32,18,12,6,40,23,6,29.95,29.84,29.75,10,10,10,17,7,22,0.00,0,,181
2012-3-15,80,55,30,23,17,13,54,31,8,30.01,29.92,29.83,10,10,10,20,8,24,0.00,0,,219
2012-3-16,86,57,27,23,14,1,75,40,4,29.88,29.75,29.61,10,10,9,18,6,24,0.00,0,,235
2012-3-17,88,60,32,17,6,-4,43,23,3,29.70,29.57,29.47,10,10,10,32,15,41,0.00,0,,214
2012-3-18,82,65,48,25,16,8,29,19,9,29.53,29.42,29.30,10,9,4,43,24,54,0.00,2,,196
2012-3-19,62,49,36,20,13,1,44,30,15,29.50,29.46,29.39,10,10,10,20,8,24,0.00,0,,219
2012-3-20,57,43,29,29,23,10,57,41,24,29.91,29.74,29.51,10,9,3,38,19,47,0.00,3,,10
2012-3-21,62,49,36,40,26,19,66,47,27,29.90,29.83,29.72,10,10,8,35,16,45,T,7,Rain,1
2012-3-22,56,49,41,44,41,34,93,72,50,29.94,29.84,29.65,10,8,1,31,11,38,0.30,7,Rain,27
2012-3-23,74,55,35,46,38,31,86,53,20,30.00,29.92,29.85,10,10,10,15,7,20,0.00,1,,239
2012-3-24,85,60,34,50,38,16,100,54,8,29.97,29.90,29.83,10,9,5,20,8,25,0.00,0,,109
2012-3-25,80,60,40,50,46,37,100,64,28,30.05,29.91,29.76,10,8,1,26,10,35,0.00,3,,273
2012-3-26,88,70,51,39,31,19,42,26,10,29.75,29.64,29.48,10,10,10,43,22,53,0.00,0,,198
2012-3-27,73,53,33,33,26,19,69,43,17,29.93,29.84,29.66,10,10,10,20,8,24,0.00,0,,112
2012-3-28,80,59,38,41,36,26,79,47,15,29.99,29.86,29.70,10,10,10,18,5,22,0.00,2,,164
2012-3-29,79,59,38,39,29,22,89,51,12,29.77,29.73,29.66,10,10,10,24,10,30,0.00,0,,336
2012-3-30,80,57,33,47,29,17,82,46,10,29.87,29.78,29.71,10,10,10,17,6,28,0.00,0,,199
2012-3-31,87,64,40,46,32,23,71,40,9,29.81,29.67,29.47,10,10,10,24,8,30,0.00,0,,207